Time;durP1;ratioP1;P1;durP2;ratioP2;P2;SDS_P1;SDS_P2;PMS_P1;PMS_P2;Temp;Humidity;BMP_temperature;BMP_pressure;BME280_temperature;BME280_humidity;BME280_pressure;Samples;Min_cycle;Max_cycle;Signal;HPM_P1;HPM_P2
2022/06/06 00:00:04;;;;;;;;;;;16.50;99.90;;;16.69;97.87;101262.84;4842223;29;20401;-69
2022/06/06 00:02:39;;;;;;;;;;;16.50;99.90;;;16.78;97.37;101263.50;4842359;29;19931;-69
2022/06/06 00:05:13;;;;;;;;;;;16.50;99.90;;;16.61;97.47;101244.31;4842159;29;20439;-69
2022/06/06 00:07:41;;;;;;;;;;;16.50;99.90;;;16.86;97.68;101261.53;4842496;29;19931;-69
2022/06/06 00:10:11;;;;;;;;;;;16.60;99.90;;;16.84;97.13;101259.84;4842664;29;20003;-69
2022/06/06 00:12:39;;;;;;;;;;;16.60;99.90;;;16.84;97.25;101271.38;4842403;29;19967;-69
2022/06/06 00:15:09;;;;;;;;;;;16.60;99.90;;;16.89;97.20;101256.13;4842168;29;20324;-69
2022/06/06 00:17:37;;;;;;;;;;;16.60;99.90;;;16.80;96.78;101258.16;4842088;29;20034;-69
2022/06/06 00:20:07;;;;;;;;;;;16.60;99.90;;;16.97;96.68;101266.63;4840388;29;19924;-68
2022/06/06 00:22:35;;;;;;;;;;;16.70;99.90;;;16.85;95.73;101267.81;4841994;29;19990;-69
2022/06/06 00:25:04;;;;;;;;;;;16.60;99.90;;;16.87;95.71;101243.72;4841496;29;20288;-69
2022/06/06 00:27:33;;;;;;;;;;;16.70;99.90;;;16.96;95.11;101254.16;4841463;29;20011;-69
2022/06/06 00:30:01;;;;;;;;;;;16.70;99.90;;;16.95;94.83;101237.28;4841616;29;20280;-69
2022/06/06 00:35:16;;;;;;;;;;;16.80;99.90;;;16.94;93.68;101219.47;4841708;29;19958;-69
2022/06/06 00:37:45;;;;;;;;;;;16.80;99.90;;;17.04;93.38;101226.34;4841730;29;19931;-69
2022/06/06 00:40:13;;;;;;;;;;;16.80;99.90;;;17.09;93.20;101231.59;4841478;29;19924;-69
2022/06/06 00:42:43;;;;;;;;;;;16.80;99.90;;;17.09;92.64;101231.59;4841677;29;19931;-69
2022/06/06 00:45:31;;;;;;;;;;;16.80;99.90;;;17.14;92.69;101230.56;4841762;29;19930;-70
2022/06/06 00:48:27;;;;;;;;;;;16.80;99.90;;;17.22;92.17;101226.78;4842025;29;19928;-69
2022/06/06 00:50:59;;;;;;;;;;;16.90;99.90;;;17.05;91.99;101203.19;4819476;29;19924;-69
2022/06/06 00:53:33;;;;;;;;;;;16.90;99.90;;;17.17;91.85;101231.38;4841328;29;20546;-69
2022/06/06 00:56:08;;;;;;;;;;;16.90;99.90;;;17.15;92.12;101236.75;4839908;29;20364;-69
2022/06/06 00:58:40;;;;;;;;;;;16.80;99.90;;;17.26;91.72;101229.34;4841317;29;19947;-69
2022/06/06 01:01:09;;;;;;;;;;;16.90;99.90;;;17.25;91.46;101229.41;4841736;29;19930;-69
2022/06/06 01:03:38;;;;;;;;;;;16.90;99.90;;;17.34;91.27;101235.38;4841807;29;20391;-69
2022/06/06 01:06:08;;;;;;;;;;;17.00;99.90;;;17.31;90.91;101224.75;4841109;29;19932;-69
2022/06/06 01:08:38;;;;;;;;;;;17.00;99.90;;;17.24;90.63;101195.53;4841763;29;19924;-69
2022/06/06 01:11:07;;;;;;;;;;;17.00;99.90;;;17.42;90.68;101227.16;4841541;29;19925;-69
2022/06/06 01:13:37;;;;;;;;;;;17.10;99.90;;;17.42;90.27;101222.66;4841176;29;20015;-69
2022/06/06 01:16:22;;;;;;;;;;;17.10;99.90;;;17.43;89.95;101223.53;4841471;29;19925;-69
2022/06/06 01:19:19;;;;;;;;;;;17.20;99.90;;;17.20;90.53;101217.94;4841110;29;19924;-69
2022/06/06 01:22:12;;;;;;;;;;;16.90;99.90;;;17.26;90.65;101209.75;4841463;29;20338;-69
2022/06/06 01:24:50;;;;;;;;;;;16.90;99.90;;;17.25;90.32;101202.66;4823825;29;20007;-69
2022/06/06 01:27:30;;;;;;;;;;;17.00;99.90;;;17.30;90.34;101209.66;4841245;29;20240;-69
2022/06/06 01:30:02;;;;;;;;;;;17.00;99.90;;;17.37;90.31;101205.88;4841215;29;19964;-69
2022/06/06 01:32:36;;;;;;;;;;;17.10;99.90;;;17.38;90.11;101209.44;4844146;29;19924;-69
2022/06/06 01:35:06;;;;;;;;;;;17.10;99.90;;;17.38;90.20;101212.09;4844918;29;19930;-69
2022/06/06 01:37:36;;;;;;;;;;;17.10;99.90;;;17.44;90.48;101211.94;4844171;29;20040;-69
2022/06/06 01:40:07;;;;;;;;;;;17.10;99.90;;;17.37;90.24;101191.63;4844546;29;19972;-69
2022/06/06 01:42:40;;;;;;;;;;;17.10;99.90;;;16.97;90.48;101141.91;4844880;29;19984;-70
2022/06/06 01:45:15;;;;;;;;;;;17.10;99.90;;;17.31;90.28;101192.66;4844282;29;19988;-70
2022/06/06 01:47:47;;;;;;;;;;;17.10;99.90;;;17.44;90.13;101199.44;4844308;29;19924;-70
2022/06/06 01:50:16;;;;;;;;;;;17.10;99.90;;;17.36;89.99;101193.44;4844137;29;19928;-70
2022/06/06 01:52:55;;;;;;;;;;;17.10;99.90;;;16.89;89.65;101110.94;4844139;29;19924;-69
2022/06/06 01:55:25;;;;;;;;;;;17.20;99.90;;;17.38;89.66;101188.03;4842955;29;19925;-70
2022/06/06 01:57:55;;;;;;;;;;;17.20;99.90;;;17.49;89.59;101202.91;4844120;29;19928;-70
2022/06/06 02:00:28;;;;;;;;;;;17.20;99.90;;;17.49;89.73;101200.22;4844153;29;19936;-70
2022/06/06 02:02:56;;;;;;;;;;;17.20;99.90;;;17.47;89.27;101180.63;4844012;29;19925;-69
2022/06/06 02:05:24;;;;;;;;;;;17.20;99.90;;;17.43;89.72;101188.78;4843897;29;19924;-69
2022/06/06 02:07:52;;;;;;;;;;;17.10;99.90;;;17.55;89.44;101196.50;4842728;29;20299;-69
2022/06/06 02:10:22;;;;;;;;;;;17.30;99.90;;;17.54;88.93;101203.66;4842876;29;20272;-70
2022/06/06 02:12:50;;;;;;;;;;;17.20;99.90;;;17.56;89.07;101200.94;4843883;29;20019;-70
2022/06/06 02:15:22;;;;;;;;;;;17.30;99.90;;;17.47;89.31;101203.81;4827349;29;20331;-69
2022/06/06 02:17:52;;;;;;;;;;;17.20;99.90;;;17.53;89.30;101199.22;4843638;29;20008;-71
2022/06/06 02:20:22;;;;;;;;;;;17.20;99.90;;;17.52;89.08;101191.22;4843630;29;19992;-70
2022/06/06 02:22:51;;;;;;;;;;;17.20;99.90;;;17.38;89.06;101188.88;4843655;29;19928;-70
2022/06/06 02:25:19;;;;;;;;;;;17.10;99.90;;;17.33;89.22;101189.94;4843606;29;20027;-70
2022/06/06 02:27:48;;;;;;;;;;;17.00;99.90;;;17.39;89.40;101189.78;4843750;29;20348;-70
2022/06/06 02:30:18;;;;;;;;;;;17.00;99.90;;;17.34;89.32;101181.00;4843793;29;20363;-70
2022/06/06 02:32:47;;;;;;;;;;;17.10;99.90;;;17.28;89.69;101170.47;4843867;29;20241;-70
2022/06/06 02:35:18;;;;;;;;;;;17.10;99.90;;;17.55;89.32;101181.34;4843544;29;19924;-70
2022/06/06 02:37:48;;;;;;;;;;;17.20;99.90;;;17.43;89.13;101176.28;4843447;29;19925;-70
2022/06/06 02:40:18;;;;;;;;;;;17.20;99.90;;;17.51;89.08;101168.09;4842434;29;19931;-71
2022/06/06 02:42:46;;;;;;;;;;;17.20;99.90;;;17.53;88.83;101177.84;4843631;29;19978;-70
2022/06/06 02:45:15;;;;;;;;;;;17.20;99.90;;;17.54;88.74;101174.22;4842537;29;19928;-70
2022/06/06 02:47:46;;;;;;;;;;;17.20;99.90;;;17.44;89.18;101177.19;4843179;29;19931;-70
2022/06/06 02:50:18;;;;;;;;;;;17.20;99.90;;;17.33;89.47;101152.50;4843173;29;19931;-70
2022/06/06 02:52:47;;;;;;;;;;;17.10;99.90;;;17.28;89.59;101160.66;4843494;29;20402;-70
2022/06/06 02:55:16;;;;;;;;;;;17.10;99.90;;;17.28;89.98;101175.81;4843537;29;19972;-70
2022/06/06 02:57:46;;;;;;;;;;;17.00;99.90;;;17.24;90.07;101172.38;4843273;29;20402;-70
2022/06/06 03:00:19;;;;;;;;;;;16.90;99.90;;;17.14;90.74;101182.44;4843250;29;20025;-70
2022/06/06 03:02:47;;;;;;;;;;;16.80;99.90;;;17.13;91.09;101187.78;4843457;29;19950;-70
2022/06/06 03:05:17;;;;;;;;;;;16.80;99.90;;;17.22;91.37;101186.69;4843782;29;19931;-70
2022/06/06 03:08:05;;;;;;;;;;;16.80;99.90;;;17.25;91.78;101186.63;4843502;29;20019;-70
2022/06/06 03:10:43;;;;;;;;;;;16.90;99.90;;;17.29;92.02;101188.25;4843433;29;20336;-70
2022/06/06 03:13:22;;;;;;;;;;;16.90;99.90;;;17.25;92.10;101179.44;4843154;29;19928;-70
2022/06/06 03:21:47;;;;;;;;;;;16.70;99.90;;;17.15;93.35;101180.59;4841590;29;20379;-70
2022/06/06 03:24:27;;;;;;;;;;;16.80;99.90;;;17.17;93.72;101176.97;4842595;29;20018;-70
2022/06/06 03:27:11;;;;;;;;;;;16.80;99.90;;;16.64;93.37;101067.97;4842607;29;20324;-70
2022/06/06 03:29:51;;;;;;;;;;;16.80;99.90;;;16.79;93.76;101117.44;4842732;29;19957;-70
2022/06/06 03:32:21;;;;;;;;;;;16.80;99.90;;;17.16;93.83;101174.38;4842406;29;20360;-70
2022/06/06 03:34:58;;;;;;;;;;;16.80;99.90;;;16.15;94.14;101033.56;4842376;29;19946;-70
2022/06/06 03:37:31;;;;;;;;;;;16.80;99.90;;;17.22;94.12;101176.00;4842539;29;19924;-70
2022/06/06 03:40:05;;;;;;;;;;;16.80;99.90;;;17.16;93.88;101174.38;4842351;29;19924;-70
2022/06/06 03:42:37;;;;;;;;;;;16.80;99.90;;;17.04;93.79;101166.66;4842179;29;20000;-70
2022/06/06 03:45:17;;;;;;;;;;;16.70;99.90;;;16.95;93.70;101165.13;4842245;29;19931;-71
2022/06/06 03:47:57;;;;;;;;;;;16.70;99.90;;;16.89;93.86;101167.06;4842380;29;20305;-70
2022/06/06 03:50:32;;;;;;;;;;;16.60;99.90;;;16.94;93.69;101181.16;4842442;29;19931;-70
2022/06/06 03:53:08;;;;;;;;;;;16.60;99.90;;;16.98;93.35;101180.19;4842047;29;20276;-70
2022/06/06 03:55:42;;;;;;;;;;;16.60;99.90;;;16.89;93.34;101167.06;4840564;29;19928;-70
2022/06/06 03:58:12;;;;;;;;;;;16.60;99.90;;;16.70;93.65;101145.28;4840823;29;20293;-70
2022/06/06 04:00:41;;;;;;;;;;;16.60;99.90;;;16.86;93.63;101180.50;4841961;29;19925;-70
2022/06/06 04:03:11;;;;;;;;;;;16.60;99.90;;;16.82;93.26;101182.34;4842080;29;19946;-70
2022/06/06 04:05:40;;;;;;;;;;;16.50;99.90;;;16.43;93.47;101105.88;4841728;29;20027;-70
2022/06/06 04:08:10;;;;;;;;;;;16.50;99.90;;;16.94;93.55;101182.06;4841762;29;19924;-70
2022/06/06 04:10:43;;;;;;;;;;;16.60;99.90;;;16.92;93.91;101183.00;4841949;29;19924;-70
2022/06/06 04:13:25;;;;;;;;;;;16.60;99.90;;;16.94;93.63;101178.50;4840459;29;20000;-70
2022/06/06 04:15:57;;;;;;;;;;;16.60;99.90;;;16.78;93.16;101178.00;4841763;29;20379;-70
2022/06/06 04:18:36;;;;;;;;;;;16.50;99.90;;;16.40;93.01;101162.00;4840195;29;19929;-70
2022/06/06 04:21:13;;;;;;;;;;;16.30;99.90;;;16.59;93.00;101173.16;4841636;29;19925;-70
2022/06/06 04:23:57;;;;;;;;;;;16.30;99.90;;;16.42;93.09;101175.31;4841909;29;19924;-70
2022/06/06 04:26:32;;;;;;;;;;;16.10;99.90;;;16.30;92.99;101148.91;4841391;29;19936;-70
2022/06/06 04:29:05;;;;;;;;;;;16.10;99.90;;;16.33;92.77;101164.84;4841465;29;20019;-70
2022/06/06 04:31:41;;;;;;;;;;;16.10;99.90;;;16.45;92.71;101189.50;4841580;29;20336;-70
2022/06/06 04:34:15;;;;;;;;;;;16.10;99.90;;;16.46;92.59;101177.88;4841411;29;19924;-70
2022/06/06 04:36:48;;;;;;;;;;;16.10;99.90;;;16.43;92.15;101187.75;4841589;29;20356;-70
2022/06/06 04:39:23;;;;;;;;;;;16.10;99.90;;;16.37;91.79;101188.78;4841487;29;19932;-70
2022/06/06 04:41:57;;;;;;;;;;;16.10;99.90;;;16.32;91.22;101190.66;4840646;29;19924;-70
2022/06/06 04:44:34;;;;;;;;;;;16.00;99.90;;;16.30;91.07;101197.81;4841398;29;19947;-70
2022/06/06 04:47:08;;;;;;;;;;;16.00;99.90;;;16.31;91.35;101204.03;4840227;29;19924;-70
2022/06/06 04:49:37;;;;;;;;;;;16.00;99.90;;;16.30;90.96;101179.13;4841545;29;19924;-71
2022/06/06 04:52:06;;;;;;;;;;;16.00;99.90;;;16.03;90.43;101199.31;4841285;29;20312;-71
2022/06/06 04:54:38;;;;;;;;;;;15.80;99.90;;;16.03;90.70;101191.31;4841222;29;19931;-71
2022/06/06 04:57:07;;;;;;;;;;;15.70;99.90;;;16.11;90.61;101191.13;4841257;29;19928;-71
2022/06/06 04:59:36;;;;;;;;;;;15.80;99.90;;;16.11;90.50;101191.13;4841213;29;20023;-71
2022/06/06 05:02:05;;;;;;;;;;;15.80;99.90;;;16.24;90.49;101195.28;4841389;29;19985;-70
2022/06/06 05:04:33;;;;;;;;;;;15.90;99.90;;;16.20;89.94;101182.94;4841234;29;19966;-71
2022/06/06 05:07:13;;;;;;;;;;;15.90;99.90;;;16.41;89.43;101184.25;4844244;29;19959;-71
2022/06/06 05:09:56;;;;;;;;;;;16.00;99.90;;;16.41;88.94;101181.56;4843838;29;20442;-71
2022/06/06 05:12:38;;;;;;;;;;;16.10;99.90;;;16.46;88.70;101191.22;4844775;29;19928;-70
2022/06/06 05:15:19;;;;;;;;;;;16.20;99.90;;;16.67;88.20;101181.84;4845290;29;19929;-70
2022/06/06 05:18:14;;;;;;;;;;;16.30;99.90;;;16.64;87.24;101190.84;4844740;29;20356;-70
2022/06/06 05:20:53;;;;;;;;;;;16.30;99.90;;;16.52;86.48;101169.75;4844659;29;19980;-71
2022/06/06 05:24:03;;;;;;;;;;;16.30;99.90;;;16.57;86.50;101183.88;4844813;29;19924;-71
2022/06/06 05:26:48;;;;;;;;;;;16.20;99.90;;;16.68;85.94;101180.94;4773075;30;20427;-70
2022/06/06 05:29:30;;;;;;;;;;;16.30;99.90;;;16.64;85.71;101171.25;4842697;29;20032;-71
2022/06/06 05:32:10;;;;;;;;;;;16.30;99.90;;;16.68;85.63;101184.50;4844710;29;20347;-71
2022/06/06 05:34:41;;;;;;;;;;;16.40;99.90;;;16.71;85.30;101175.53;4844752;29;20362;-71
2022/06/06 05:37:20;;;;;;;;;;;16.40;99.90;;;16.63;84.96;101170.38;4845258;29;20019;-71
2022/06/06 05:40:15;;;;;;;;;;;16.40;99.90;;;16.63;85.58;101174.81;4844881;29;19977;-71
2022/06/06 05:43:03;;;;;;;;;;;16.40;99.90;;;16.77;85.40;101165.56;4844951;29;19964;-71
2022/06/06 05:45:38;;;;;;;;;;;16.50;99.90;;;16.85;84.68;101178.72;4844632;29;19928;-71
2022/06/06 05:48:17;;;;;;;;;;;16.50;99.90;;;15.02;83.81;100902.88;4844505;29;19928;-71
2022/06/06 05:50:57;;;;;;;;;;;16.50;99.90;;;16.67;84.03;101156.03;4844541;29;19996;-71
2022/06/06 05:53:40;;;;;;;;;;;16.50;99.90;;;16.87;84.39;101177.78;4845684;29;19925;-71
2022/06/06 05:56:22;;;;;;;;;;;16.60;99.90;;;16.87;83.57;101164.44;4845309;29;19924;-71
2022/06/06 05:59:01;;;;;;;;;;;16.60;99.90;;;16.94;83.50;101176.72;4845144;29;19972;-70
2022/06/06 06:01:42;;;;;;;;;;;16.70;99.90;;;17.03;83.83;101179.13;4845656;29;19963;-71
2022/06/06 06:04:46;;;;;;;;;;;16.70;99.90;;;17.02;82.67;101179.19;4845259;29;19977;-70
2022/06/06 06:07:23;;;;;;;;;;;16.70;99.90;;;16.94;81.15;101168.69;4826804;29;20340;-71
2022/06/06 06:10:04;;;;;;;;;;;16.70;99.90;;;16.94;80.97;101184.72;4845342;29;19924;-70
2022/06/06 06:13:01;;;;;;;;;;;16.60;99.90;;;16.87;81.41;101175.13;4845250;29;19995;-70
2022/06/06 06:15:37;;;;;;;;;;;16.60;99.90;;;16.91;80.66;101176.81;4844944;29;19924;-70
2022/06/06 06:18:18;;;;;;;;;;;16.60;99.90;;;16.86;80.79;101178.69;4844495;29;20055;-71
2022/06/06 06:20:49;;;;;;;;;;;16.60;99.90;;;17.02;81.54;101188.09;4844917;29;19966;-70
2022/06/06 06:23:22;;;;;;;;;;;16.70;99.90;;;16.84;79.81;101156.47;4845058;29;19958;-70
2022/06/06 06:25:51;;;;;;;;;;;16.70;99.90;;;16.99;79.45;101196.16;4844745;29;19924;-70
2022/06/06 06:28:19;;;;;;;;;;;16.70;99.90;;;17.05;79.06;101200.50;4844602;29;20375;-70
2022/06/06 06:31:00;;;;;;;;;;;16.70;99.90;;;16.96;79.15;101198.03;4844884;29;20015;-70
2022/06/06 06:33:44;;;;;;;;;;;16.70;99.90;;;17.17;79.29;101209.06;4844665;29;19925;-70
2022/06/06 06:36:22;;;;;;;;;;;16.80;99.90;;;17.37;79.13;101205.00;4844051;29;19924;-70
2022/06/06 06:39:10;;;;;;;;;;;17.00;99.90;;;17.35;76.72;101204.16;4844812;29;19932;-70
2022/06/06 06:41:48;;;;;;;;;;;17.10;99.90;;;17.09;75.92;101160.28;4844747;29;19924;-70
2022/06/06 06:44:21;;;;;;;;;;;17.10;99.90;;;15.63;75.91;100889.03;4844340;29;20284;-71
2022/06/06 06:46:54;;;;;;;;;;;17.10;99.90;;;17.60;76.39;101215.97;4844221;29;19959;-70
2022/06/06 06:49:31;;;;;;;;;;;17.20;99.90;;;17.18;76.67;101119.06;4844640;29;19930;-70
2022/06/06 06:52:13;;;;;;;;;;;17.30;99.90;;;17.97;75.97;101220.25;4844468;29;19932;-71
2022/06/06 06:54:52;;;;;;;;;;;17.60;99.90;;;17.82;74.24;101203.75;4844698;29;19952;-71
2022/06/06 06:57:30;;;;;;;;;;;17.60;99.90;;;17.64;74.43;101217.66;4844167;29;19932;-70
2022/06/06 07:00:06;;;;;;;;;;;17.30;99.90;;;17.49;75.00;101218.97;4843854;29;19981;-71
2022/06/06 07:08:43;;;;;;;;;;;17.00;99.90;;;17.30;73.21;101216.78;4844293;29;19959;-71
2022/06/06 07:11:36;;;;;;;;;;;17.00;99.90;;;17.49;74.44;101215.41;4843852;29;20474;-71
2022/06/06 07:14:08;;;;;;;;;;;17.10;99.90;;;17.56;74.19;101214.28;4822507;29;20351;-71
2022/06/06 07:16:39;;;;;;;;;;;17.20;99.90;;;17.36;74.11;101184.53;4843812;29;19928;-71
2022/06/06 07:19:12;;;;;;;;;;;17.20;99.90;;;17.36;73.11;101203.25;4844171;29;19928;-71
2022/06/06 07:21:42;;;;;;;;;;;17.20;99.90;;;17.49;74.07;101218.06;4843704;29;19924;-71
2022/06/06 07:24:12;;;;;;;;;;;17.20;99.90;;;17.42;73.01;101203.09;4844510;29;19924;-71
2022/06/06 07:26:42;;;;;;;;;;;17.10;99.90;;;17.42;73.66;101195.06;4843842;29;20023;-72
2022/06/06 07:29:13;;;;;;;;;;;17.20;99.90;;;17.65;74.11;101209.56;4843013;29;20406;-71
2022/06/06 07:31:52;;;;;;;;;;;17.30;99.90;;;17.67;73.85;101185.47;4844244;29;20018;-71
2022/06/06 07:34:37;;;;;;;;;;;17.40;99.90;;;17.15;73.30;101119.13;4842598;29;19926;-71
2022/06/06 07:37:14;;;;;;;;;;;17.40;99.90;;;16.78;73.90;101038.22;4844077;29;19951;-71
2022/06/06 07:39:49;;;;;;;;;;;17.50;99.90;;;17.46;74.03;101202.94;4843324;29;19926;-71
2022/06/06 07:42:27;;;;;;;;;;;17.30;99.90;;;17.38;74.86;101217.47;4843410;29;20370;-70
2022/06/06 07:45:10;;;;;;;;;;;17.20;99.90;;;17.26;75.78;101188.38;4843908;29;19924;-73
2022/06/06 07:47:51;;;;;;;;;;;17.10;99.90;;;17.43;76.08;101223.53;4842840;29;20348;-74
2022/06/06 07:50:23;;;;;;;;;;;17.20;99.90;;;17.45;76.27;101237.75;4843053;29;19924;-73
2022/06/06 07:52:57;;;;;;;;;;;17.10;99.90;;;17.48;76.45;101227.88;4843106;29;19924;-74
2022/06/06 07:55:28;;;;;;;;;;;17.10;99.90;;;17.81;77.06;101226.06;4843319;29;20011;-74
2022/06/06 07:58:08;;;;;;;;;;;17.40;99.90;;;17.85;76.18;101211.69;4843112;29;20018;-74
2022/06/06 08:00:36;;;;;;;;;;;17.50;99.90;;;17.78;75.22;101231.53;4842984;29;19925;-72
2022/06/06 08:03:15;;;;;;;;;;;17.50;99.90;;;17.71;73.73;101220.09;4843126;29;19947;-72
2022/06/06 08:06:00;;;;;;;;;;;17.40;99.90;;;17.60;74.10;101234.69;4843341;29;19946;-72
2022/06/06 08:08:42;;;;;;;;;;;17.30;99.90;;;17.63;74.24;101223.94;4842822;29;19928;-73
2022/06/06 08:11:13;;;;;;;;;;;17.30;99.90;;;17.35;73.50;101204.16;4841979;29;20042;-73
2022/06/06 08:13:47;;;;;;;;;;;17.10;99.90;;;17.28;74.21;101222.19;4842892;29;19960;-72
2022/06/06 08:16:22;;;;;;;;;;;17.00;99.90;;;17.47;74.27;101225.22;4843221;29;19924;-71
2022/06/06 08:19:01;;;;;;;;;;;17.10;99.90;;;17.43;73.97;101211.06;4843002;29;20299;-72
2022/06/06 08:21:36;;;;;;;;;;;17.10;99.90;;;17.52;74.80;101226.00;4842656;29;20032;-71
2022/06/06 08:24:06;;;;;;;;;;;17.10;99.90;;;17.60;74.77;101224.00;4842843;29;19964;-72
2022/06/06 08:26:55;;;;;;;;;;;17.30;99.90;;;17.38;74.68;101220.97;4842782;29;20272;-73
2022/06/06 08:29:24;;;;;;;;;;;17.10;99.90;;;17.31;75.05;101202.47;4841668;29;19956;-74
2022/06/06 08:31:54;;;;;;;;;;;17.10;99.90;;;17.35;74.24;101220.19;4842740;29;19924;-76
2022/06/06 08:34:22;;;;;;;;;;;17.10;99.90;;;17.35;74.62;101220.19;4843006;29;19970;-74
2022/06/06 08:37:05;;;;;;;;;;;17.00;99.90;;;17.22;75.34;101221.44;4842623;29;19928;-72
2022/06/06 08:39:43;;;;;;;;;;;16.90;99.90;;;17.27;75.67;101207.03;4842660;29;19924;-72
2022/06/06 08:42:24;;;;;;;;;;;16.90;99.90;;;17.22;75.87;101208.06;4842546;29;19963;-71
2022/06/06 08:45:06;;;;;;;;;;;16.90;99.90;;;16.82;75.10;101173.50;4842818;29;19960;-71
2022/06/06 08:47:47;;;;;;;;;;;16.70;99.90;;;16.84;75.53;101206.38;4842848;29;19925;-71
2022/06/06 08:50:45;;;;;;;;;;;16.60;99.90;;;15.15;75.58;100896.38;4841022;29;19980;-71
2022/06/06 08:53:41;;;;;;;;;;;16.60;99.90;;;17.16;76.45;101209.13;4842581;29;19925;-71
2022/06/06 08:56:28;;;;;;;;;;;16.70;99.90;;;17.41;75.61;101198.63;4838699;29;20291;-71
2022/06/06 08:59:30;;;;;;;;;;;17.00;99.90;;;17.43;74.57;101175.41;4843122;29;19924;-71
2022/06/06 09:03:02;;;;;;;;;;;17.20;99.90;;;17.85;73.63;101201.88;4842125;29;19928;-71
2022/06/06 09:05:49;;;;;;;;;;;17.50;99.90;;;18.01;73.18;101197.84;4804290;29;20357;-71
2022/06/06 09:08:51;;;;;;;;;;;17.70;99.90;;;18.20;73.18;101208.84;4842357;29;20015;-71
2022/06/06 09:11:53;;;;;;;;;;;17.80;99.90;;;18.18;72.03;101200.00;4842835;29;19979;-71
2022/06/06 09:15:06;;;;;;;;;;;17.90;99.90;;;18.19;71.16;101203.56;4819317;29;20390;-71
2022/06/06 09:17:54;;;;;;;;;;;17.90;99.90;;;18.30;72.05;101180.00;4820129;29;19925;-71
2022/06/06 09:20:50;;;;;;;;;;;18.00;99.90;;;18.17;71.19;101192.91;4842248;29;19925;-71
2022/06/06 09:23:47;;;;;;;;;;;17.90;99.90;;;17.93;72.46;101186.47;4842312;29;19924;-72
2022/06/06 09:26:24;;;;;;;;;;;17.80;99.90;;;17.80;73.07;101147.59;4842267;29;19925;-72
2022/06/06 09:29:35;;;;;;;;;;;17.70;99.90;;;18.06;74.27;101192.31;4842453;29;19932;-71
2022/06/06 09:32:34;;;;;;;;;;;17.70;99.90;;;17.76;74.81;101185.19;4842373;29;19924;-71
2022/06/06 09:35:19;;;;;;;;;;;17.50;99.90;;;17.87;75.68;101196.47;4842357;29;20310;-70
2022/06/06 09:38:10;;;;;;;;;;;17.50;99.90;;;17.94;76.39;101209.63;4842292;29;19952;-71
2022/06/06 09:40:52;;;;;;;;;;;17.60;99.90;;;17.53;75.28;101166.25;4842045;29;20167;-71
2022/06/06 09:43:33;;;;;;;;;;;17.50;99.90;;;17.76;75.63;101185.19;4842772;29;20159;-71
2022/06/06 09:46:23;;;;;;;;;;;17.50;99.90;;;17.79;75.98;101202.03;4825876;29;20397;-74
2022/06/06 09:49:29;;;;;;;;;;;17.50;99.90;;;17.62;76.43;101195.41;4842406;29;20026;-74
2022/06/06 09:52:50;;;;;;;;;;;17.40;99.90;;;17.68;77.37;101193.44;4842548;29;19924;-76
2022/06/06 09:59:04;;;;;;;;;;;17.60;99.90;;;17.97;78.47;101185.47;4788736;30;20028;-74
2022/06/06 10:01:52;;;;;;;;;;;17.60;99.90;;;17.93;78.10;101169.53;4844709;29;20260;-72
2022/06/06 10:04:46;;;;;;;;;;;17.70;99.90;;;17.93;78.40;101174.88;4838584;29;19924;-73
2022/06/06 10:07:33;;;;;;;;;;;17.60;99.90;;;17.81;78.66;101143.09;4845304;29;19924;-71
2022/06/06 10:10:36;;;;;;;;;;;17.60;99.90;;;17.79;77.42;101171.72;4845133;29;20367;-71
2022/06/06 10:13:13;;;;;;;;;;;17.60;99.90;;;17.77;77.92;101171.75;4844845;29;19928;-72
2022/06/06 10:15:59;;;;;;;;;;;17.50;99.90;;;17.84;78.32;101168.00;4845092;29;19963;-71
2022/06/06 10:18:38;;;;;;;;;;;17.60;99.90;;;17.72;79.25;101151.41;4845127;29;19989;-70
2022/06/06 10:21:24;;;;;;;;;;;17.50;99.90;;;17.70;79.74;101161.28;4844797;29;20302;-69
2022/06/06 10:24:01;;;;;;;;;;;17.50;99.90;;;17.67;79.59;101174.78;4844511;29;20298;-71
2022/06/06 10:26:40;;;;;;;;;;;17.40;99.90;;;17.41;80.28;101177.25;4845086;29;20023;-70
2022/06/06 10:29:22;;;;;;;;;;;17.20;99.90;;;17.40;81.84;101191.56;4845090;29;19928;-69
2022/06/06 10:32:02;;;;;;;;;;;17.10;99.90;;;17.24;82.70;101183.06;4844717;29;20407;-71
2022/06/06 10:34:52;;;;;;;;;;;17.00;99.90;;;17.17;83.88;101153.88;4844646;29;20458;-70
2022/06/06 10:37:36;;;;;;;;;;;17.00;99.90;;;17.20;83.69;101168.00;4844462;29;20348;-70
2022/06/06 10:40:23;;;;;;;;;;;17.00;99.90;;;17.17;84.40;101175.25;4844510;29;19924;-70
2022/06/06 10:43:15;;;;;;;;;;;16.90;99.90;;;17.18;84.78;101183.22;4844407;29;20006;-70
2022/06/06 10:45:48;;;;;;;;;;;16.80;99.90;;;16.60;85.27;101068.97;4844656;29;19932;-71
2022/06/06 10:48:33;;;;;;;;;;;16.90;99.90;;;17.36;85.78;101174.72;4844630;29;20027;-70
2022/06/06 10:51:40;;;;;;;;;;;17.00;99.90;;;17.35;85.00;101161.34;4828305;29;19924;-73
2022/06/06 10:54:28;;;;;;;;;;;17.10;99.90;;;17.23;85.01;101177.75;4844510;29;19952;-71
2022/06/06 10:57:44;;;;;;;;;;;16.90;99.90;;;17.28;85.64;101179.38;4844510;29;19928;-72
2022/06/06 11:00:19;;;;;;;;;;;17.00;99.90;;;17.09;86.54;101186.16;4839472;29;20115;-72
2022/06/06 11:03:20;;;;;;;;;;;16.80;99.90;;;16.99;87.48;101184.63;4843740;29;19924;-72
2022/06/06 11:06:30;;;;;;;;;;;16.70;99.90;;;17.04;88.60;101183.59;4829362;29;19925;-71
2022/06/06 11:09:25;;;;;;;;;;;16.70;99.90;;;17.09;89.21;101175.44;4844019;29;20299;-71
2022/06/06 11:12:10;;;;;;;;;;;16.80;99.90;;;17.01;89.21;101180.97;4844050;29;20376;-71
2022/06/06 11:14:40;;;;;;;;;;;16.70;99.90;;;17.02;89.86;101181.84;4844096;29;20395;-72
2022/06/06 11:17:38;;;;;;;;;;;16.70;99.90;;;17.03;89.95;101165.78;4843903;29;19948;-72
2022/06/06 11:20:42;;;;;;;;;;;16.70;99.90;;;17.12;89.79;101170.91;4842681;29;19963;-71
2022/06/06 11:23:34;;;;;;;;;;;16.80;99.90;;;16.68;90.00;101077.66;4844151;29;19924;-72
2022/06/06 11:26:16;;;;;;;;;;;16.90;99.90;;;17.19;90.21;101174.25;4843728;29;19925;-70
2022/06/06 11:29:13;;;;;;;;;;;16.90;99.90;;;17.22;89.92;101152.81;4843889;29;19951;-70
2022/06/06 11:32:03;;;;;;;;;;;17.00;99.90;;;17.32;90.18;101166.81;4843716;29;19925;-70
2022/06/06 11:35:00;;;;;;;;;;;17.00;99.90;;;17.20;88.69;101146.63;4843441;29;19924;-70
2022/06/06 11:38:15;;;;;;;;;;;17.00;99.90;;;17.17;88.24;101163.63;4842509;29;20439;-71
2022/06/06 11:41:07;;;;;;;;;;;16.90;99.90;;;17.17;88.77;101168.09;4840400;29;19924;-71
2022/06/06 11:44:10;;;;;;;;;;;16.80;99.90;;;17.14;89.24;101147.69;4843682;29;19968;-71
2022/06/06 11:47:29;;;;;;;;;;;16.80;99.90;;;16.90;89.66;101161.66;4843426;29;19924;-71
2022/06/06 11:50:27;;;;;;;;;;;16.60;99.90;;;16.93;91.17;101163.38;4786755;30;19925;-68
2022/06/06 11:53:39;;;;;;;;;;;16.60;99.90;;;16.94;91.69;101166.00;4842885;29;20025;-68
2022/06/06 11:56:16;;;;;;;;;;;16.60;99.90;;;16.92;92.80;101162.50;4843283;29;19924;-69
2022/06/06 11:59:21;;;;;;;;;;;16.60;99.90;;;16.92;93.95;101158.94;4843192;29;19924;-69
2022/06/06 12:02:07;;;;;;;;;;;16.60;99.90;;;16.84;94.33;101158.28;4843267;29;19924;-69
2022/06/06 12:04:53;;;;;;;;;;;16.50;99.90;;;16.66;94.73;101161.41;4843713;29;20296;-69
2022/06/06 12:07:54;;;;;;;;;;;16.40;99.90;;;16.65;94.73;101154.28;4843056;29;19924;-69
2022/06/06 12:10:24;;;;;;;;;;;16.30;99.90;;;16.51;94.15;101167.97;4842067;29;20517;-69
2022/06/06 12:13:10;;;;;;;;;;;16.20;99.90;;;16.28;94.45;101136.47;4842092;29;19929;-71
2022/06/06 12:16:23;;;;;;;;;;;16.20;99.90;;;16.38;94.08;101161.16;4841595;29;20531;-71
2022/06/06 12:19:29;;;;;;;;;;;16.20;99.90;;;16.60;93.68;101185.59;4816827;29;19924;-70
2022/06/06 12:22:17;;;;;;;;;;;16.30;99.90;;;16.53;90.90;101189.34;4842727;29;19925;-71
2022/06/06 12:25:17;;;;;;;;;;;16.30;99.90;;;16.50;90.29;101192.94;4843116;29;20307;-71